createdAt,value
2023-03-28T00:02:05.253Z,12.50
2023-03-28T00:04:53.641Z,12.40
2023-03-28T00:07:42.537Z,12.50
2023-03-28T00:10:30.955Z,12.30
2023-03-28T00:13:21.371Z,12.40
2023-03-28T00:16:12.967Z,12.50
2023-03-28T00:19:05.875Z,12.70
2023-03-28T00:21:54.878Z,12.50
2023-03-28T00:24:44.428Z,12.20
2023-03-28T00:27:33.488Z,12.40
2023-03-28T00:30:21.958Z,12.10
2023-03-28T00:33:10.421Z,11.20
2023-03-28T00:36:00.771Z,11.20
2023-03-28T00:38:49.827Z,11.20
2023-03-28T00:41:41.622Z,11.00
2023-03-28T00:44:47.719Z,11.10
2023-03-28T00:47:41.891Z,11.30
2023-03-28T00:50:36.608Z,11.30
2023-03-28T00:53:27.482Z,11.20
2023-03-28T00:56:18.832Z,11.20
2023-03-28T00:59:10.775Z,11.40
2023-03-28T01:01:59.511Z,11.50
2023-03-28T01:04:57.741Z,11.50
2023-03-28T01:07:52.521Z,11.40
2023-03-28T01:10:42.631Z,11.40
2023-03-28T01:13:34.867Z,11.60
2023-03-28T01:16:24.202Z,11.70
2023-03-28T01:19:26.764Z,11.80
2023-03-28T01:22:38.173Z,11.80
2023-03-28T01:26:06.577Z,11.60
2023-03-28T01:29:40.541Z,11.70
2023-03-28T01:33:04.979Z,11.70
2023-03-28T01:36:34.380Z,10.90
2023-03-28T01:39:39.505Z,11.10
2023-03-28T01:42:33.417Z,11.20
2023-03-28T01:45:29.829Z,10.80
2023-03-28T01:48:26.044Z,10.50
2023-03-28T01:51:24.744Z,10.50
2023-03-28T01:54:21.869Z,10.50
2023-03-28T01:57:15.938Z,10.60
2023-03-28T02:00:12.730Z,10.60
2023-03-28T02:03:06.870Z,10.60
2023-03-28T02:05:58.453Z,10.20
2023-03-28T02:08:49.561Z,10.10
2023-03-28T02:11:40.936Z,9.70
2023-03-28T02:14:36.387Z,9.50
2023-03-28T02:17:29.069Z,9.50
2023-03-28T02:20:20.604Z,9.20
2023-03-28T02:23:12.678Z,8.90
2023-03-28T02:26:01.457Z,8.60
2023-03-28T02:28:54.526Z,8.80
2023-03-28T02:31:42.985Z,9.00
2023-03-28T02:34:32.316Z,9.00
2023-03-28T02:37:32.105Z,8.70
2023-03-28T02:40:35.441Z,9.20
2023-03-28T02:43:48.592Z,9.60
2023-03-28T02:46:48.361Z,10.00
2023-03-28T02:49:50.333Z,10.10
2023-03-28T02:52:51.598Z,10.00
2023-03-28T02:55:46.308Z,9.30
2023-03-28T02:58:40.150Z,9.00
2023-03-28T03:01:29.543Z,9.10
2023-03-28T03:04:19.431Z,9.30
2023-03-28T03:07:09.535Z,9.70
2023-03-28T03:09:58.063Z,9.80
2023-03-28T03:12:47.356Z,9.60
2023-03-28T03:15:35.907Z,9.70
2023-03-28T03:18:24.578Z,9.60
2023-03-28T03:21:14.397Z,9.60
2023-03-28T03:24:03.105Z,9.30
2023-03-28T03:26:51.554Z,8.70
2023-03-28T03:29:40.326Z,8.20
2023-03-28T03:32:29.127Z,7.80
2023-03-28T03:35:17.750Z,7.80
2023-03-28T03:38:07.649Z,7.90
2023-03-28T03:40:56.067Z,8.40
2023-03-28T03:43:47.047Z,8.70
2023-03-28T03:46:35.796Z,8.40
2023-03-28T03:49:24.434Z,8.20
2023-03-28T03:52:13.165Z,8.40
2023-03-28T03:55:03.095Z,8.70
2023-03-28T03:57:51.522Z,8.90
2023-03-28T04:00:40.106Z,8.90
2023-03-28T04:03:28.870Z,8.50
2023-03-28T04:06:17.355Z,8.30
2023-03-28T04:09:06.342Z,7.80
2023-03-28T04:11:56.844Z,7.70
2023-03-28T04:14:45.371Z,7.90
2023-03-28T04:17:35.523Z,8.10
2023-03-28T04:20:24.492Z,8.00
2023-03-28T04:23:12.935Z,8.20
2023-03-28T04:26:02.573Z,8.50
2023-03-28T04:28:52.692Z,8.80
2023-03-28T04:31:41.346Z,8.40
2023-03-28T04:34:30.889Z,8.10
2023-03-28T04:37:19.992Z,8.10
2023-03-28T04:40:11.360Z,7.70
2023-03-28T04:42:59.852Z,7.70
2023-03-28T04:45:49.914Z,7.40
2023-03-28T04:48:38.709Z,7.30
2023-03-28T04:51:28.700Z,6.80
2023-03-28T04:54:17.502Z,8.00
2023-03-28T04:57:06.140Z,8.00
2023-03-28T04:59:54.680Z,7.70
2023-03-28T05:02:44.654Z,7.60
2023-03-28T05:05:33.767Z,7.70
2023-03-28T05:08:24.912Z,7.70
2023-03-28T05:11:13.345Z,7.80
2023-03-28T05:14:01.877Z,7.70
2023-03-28T05:16:50.366Z,7.50
2023-03-28T05:19:40.370Z,7.50
2023-03-28T05:22:28.877Z,7.40
2023-03-28T05:25:17.535Z,7.40
2023-03-28T05:28:06.524Z,7.10
2023-03-28T05:30:54.994Z,7.00
2023-03-28T05:33:43.380Z,6.60
2023-03-28T05:36:33.209Z,6.70
2023-03-28T05:39:21.782Z,6.90
2023-03-28T05:42:10.374Z,7.50
2023-03-28T05:44:58.865Z,7.10
2023-03-28T05:47:47.442Z,6.90
2023-03-28T05:50:36.418Z,7.10
2023-03-28T05:53:26.573Z,7.30
2023-03-28T05:56:15.035Z,7.70
2023-03-28T05:59:03.678Z,7.80
2023-03-28T06:01:52.674Z,8.00
2023-03-28T06:04:41.248Z,8.10
2023-03-28T06:07:41.302Z,8.20
2023-03-28T06:10:32.285Z,7.70
2023-03-28T06:13:20.734Z,7.50
2023-03-28T06:16:09.688Z,7.40
2023-03-28T06:19:10.367Z,7.50
2023-03-28T06:21:59.236Z,7.50
2023-03-28T06:24:47.653Z,7.80
2023-03-28T06:27:37.494Z,7.60
2023-03-28T06:30:26.005Z,7.70
2023-03-28T06:33:14.453Z,7.80
2023-03-28T06:36:03.310Z,7.70
2023-03-28T06:38:53.451Z,8.00
2023-03-28T06:41:42.021Z,8.20
2023-03-28T06:44:32.088Z,8.40
2023-03-28T06:47:20.653Z,8.20
2023-03-28T06:50:10.152Z,8.10
2023-03-28T06:52:59.075Z,9.70
2023-03-28T06:55:47.535Z,8.50
2023-03-28T06:58:35.957Z,8.70
2023-03-28T07:01:25.873Z,8.80
2023-03-28T07:04:14.418Z,8.70
2023-03-28T07:07:02.862Z,8.80
2023-03-28T07:09:52.773Z,8.70
2023-03-28T07:12:41.269Z,8.90
2023-03-28T07:15:29.779Z,9.10
2023-03-28T07:18:19.729Z,9.50
2023-03-28T07:21:09.555Z,9.80
2023-03-28T07:23:58.231Z,10.20
2023-03-28T07:26:46.659Z,10.60
2023-03-28T07:29:35.113Z,11.00
2023-03-28T07:32:23.671Z,11.30
2023-03-28T07:35:13.656Z,11.40
2023-03-28T07:38:02.219Z,12.40
2023-03-28T07:40:50.778Z,11.50
2023-03-28T07:43:40.146Z,11.60
2023-03-28T07:46:29.547Z,11.90
2023-03-28T07:49:19.977Z,12.00
2023-03-28T07:52:09.917Z,12.20
2023-03-28T07:54:58.372Z,12.30
2023-03-28T07:57:47.018Z,12.40
2023-03-28T08:00:35.586Z,12.60
2023-03-28T08:03:24.420Z,12.50
2023-03-28T08:06:30.898Z,12.90
2023-03-28T08:09:21.736Z,13.20
2023-03-28T08:12:10.230Z,13.40
2023-03-28T08:14:58.792Z,13.50
2023-03-28T08:17:47.553Z,13.20
2023-03-28T08:20:36.066Z,13.30
2023-03-28T08:23:24.561Z,13.00
2023-03-28T08:26:14.842Z,13.10
2023-03-28T08:29:03.573Z,13.40
2023-03-28T08:31:52.073Z,13.60
2023-03-28T08:34:40.619Z,13.70
2023-03-28T08:37:29.273Z,13.70
2023-03-28T08:40:21.184Z,13.50
2023-03-28T08:43:38.096Z,13.60
2023-03-28T08:46:29.496Z,13.70
2023-03-28T08:49:19.294Z,13.90
2023-03-28T08:52:09.131Z,14.10
2023-03-28T08:55:01.528Z,14.20
2023-03-28T08:57:53.932Z,14.20
2023-03-28T09:00:43.798Z,14.30
2023-03-28T09:03:34.675Z,14.20
2023-03-28T09:06:29.564Z,14.20
2023-03-28T09:09:34.188Z,14.30
2023-03-28T09:12:35.433Z,14.40
2023-03-28T09:15:32.840Z,14.20
2023-03-28T09:18:44.096Z,14.50
2023-03-28T09:21:39.384Z,14.70
2023-03-28T09:24:44.862Z,14.70
2023-03-28T09:27:37.700Z,14.80
2023-03-28T09:30:32.468Z,15.00
2023-03-28T09:33:28.941Z,15.20
2023-03-28T09:36:25.950Z,15.20
2023-03-28T09:39:27.026Z,15.30
2023-03-28T09:42:20.575Z,15.50
2023-03-28T09:45:18.639Z,15.50
2023-03-28T09:48:14.229Z,15.60
2023-03-28T09:51:03.504Z,15.50
2023-03-28T09:53:53.267Z,15.50
2023-03-28T09:56:44.812Z,15.50
2023-03-28T09:59:35.095Z,15.70
2023-03-28T10:02:29.335Z,15.90
2023-03-28T10:05:36.822Z,16.10
2023-03-28T10:08:28.114Z,16.00
2023-03-28T10:11:19.387Z,16.10
2023-03-28T10:14:31.628Z,16.30
2023-03-28T10:17:28.673Z,16.40
2023-03-28T10:20:21.540Z,16.40
2023-03-28T10:23:14.248Z,16.50
2023-03-28T10:26:04.846Z,16.60
2023-03-28T10:28:57.556Z,16.70
2023-03-28T10:31:50.978Z,16.80
2023-03-28T10:34:39.549Z,17.00
2023-03-28T10:37:29.611Z,16.80
2023-03-28T10:40:27.550Z,16.90
2023-03-28T10:43:16.823Z,17.10
2023-03-28T10:46:14.217Z,17.30
2023-03-28T10:49:05.850Z,17.60
2023-03-28T10:51:54.385Z,17.60
2023-03-28T10:54:57.674Z,17.80
2023-03-28T10:57:55.146Z,17.90
2023-03-28T11:00:45.934Z,18.00
2023-03-28T11:03:47.548Z,18.30
2023-03-28T11:06:40.399Z,18.50
2023-03-28T11:12:43.847Z,18.90
2023-03-28T11:15:50.160Z,19.10
2023-03-28T11:18:53.740Z,19.30
2023-03-28T11:21:52.261Z,19.50
2023-03-28T11:24:47.524Z,19.80
2023-03-28T11:27:41.843Z,19.70
2023-03-28T11:30:33.904Z,19.80
2023-03-28T11:33:29.581Z,20.10
2023-03-28T11:36:24.878Z,20.30
2023-03-28T11:39:20.630Z,20.40
2023-03-28T11:42:14.247Z,20.70
2023-03-28T11:45:08.064Z,20.90
2023-03-28T11:48:05.938Z,21.10
2023-03-28T11:51:02.305Z,20.50
2023-03-28T11:53:57.425Z,20.80
2023-03-28T11:56:53.789Z,20.90
2023-03-28T11:59:50.629Z,21.10
2023-03-28T12:02:43.367Z,21.30
2023-03-28T12:08:28.455Z,21.80
2023-03-28T12:11:24.953Z,21.90
2023-03-28T12:14:29.441Z,22.30
2023-03-28T12:17:23.094Z,22.00
2023-03-28T12:20:17.605Z,21.90
2023-03-28T12:23:11.754Z,21.90
2023-03-28T12:28:58.871Z,22.20
2023-03-28T12:31:52.206Z,22.50
2023-03-28T12:34:44.949Z,22.50
2023-03-28T12:37:39.781Z,22.30
2023-03-28T12:40:38.169Z,22.40
2023-03-28T12:43:31.621Z,22.50
2023-03-28T12:46:24.318Z,22.50
2023-03-28T12:49:17.722Z,22.60
2023-03-28T12:52:08.487Z,22.50
2023-03-28T12:55:01.720Z,22.60
2023-03-28T12:57:50.647Z,22.60
2023-03-28T13:00:48.140Z,22.50
2023-03-28T13:03:46.954Z,22.50
2023-03-28T13:06:43.708Z,22.60
2023-03-28T13:09:49.640Z,22.60
2023-03-28T13:13:00.154Z,22.70
2023-03-28T13:16:02.969Z,22.80
2023-03-28T13:19:06.180Z,22.70
2023-03-28T13:21:57.712Z,22.60
2023-03-28T13:24:46.190Z,22.70
2023-03-28T13:27:36.039Z,22.70
2023-03-28T13:30:26.572Z,22.90
2023-03-28T13:33:22.184Z,22.90
2023-03-28T13:36:26.030Z,21.70
2023-03-28T13:39:24.208Z,21.80
2023-03-28T13:42:29.267Z,21.80
2023-03-28T13:45:25.554Z,21.90
2023-03-28T13:48:14.615Z,22.10
2023-03-28T13:51:07.507Z,22.20
2023-03-28T13:53:57.540Z,22.20
2023-03-28T13:56:47.923Z,22.30
2023-03-28T13:59:38.826Z,22.30
2023-03-28T14:02:38.159Z,22.50
2023-03-28T14:05:28.069Z,22.50
2023-03-28T14:08:25.430Z,22.40
2023-03-28T14:11:18.015Z,22.20
2023-03-28T14:14:11.016Z,22.20
2023-03-28T14:17:02.653Z,22.30
2023-03-28T14:19:53.852Z,22.40
2023-03-28T14:22:56.898Z,22.50
2023-03-28T14:25:49.834Z,22.70
2023-03-28T14:28:41.978Z,22.70
2023-03-28T14:31:33.153Z,22.80
2023-03-28T14:34:25.433Z,22.90
2023-03-28T14:37:18.426Z,22.80
2023-03-28T14:40:19.707Z,22.90
2023-03-28T14:43:19.769Z,22.90
2023-03-28T14:46:11.577Z,22.90
2023-03-28T14:49:02.996Z,22.70
2023-03-28T14:51:56.341Z,22.60
2023-03-28T14:54:48.018Z,22.50
2023-03-28T14:57:38.102Z,22.40
2023-03-28T15:03:24.124Z,22.10
2023-03-28T15:06:16.485Z,22.00
2023-03-28T15:09:12.344Z,22.10
2023-03-28T15:12:05.424Z,22.00
2023-03-28T15:14:54.597Z,22.00
2023-03-28T15:17:43.526Z,21.90
2023-03-28T15:20:36.190Z,21.80
2023-03-28T15:23:29.093Z,21.60
2023-03-28T15:26:25.570Z,21.50
2023-03-28T15:29:17.142Z,21.40
2023-03-28T15:35:00.799Z,21.40
2023-03-28T15:37:50.893Z,21.30
2023-03-28T15:40:41.833Z,21.20
2023-03-28T15:43:37.775Z,21.20
2023-03-28T15:46:32.112Z,21.10
2023-03-28T15:49:20.885Z,21.00
2023-03-28T15:52:17.516Z,20.80
2023-03-28T15:55:08.203Z,20.70
2023-03-28T15:57:57.935Z,20.50
2023-03-28T16:00:49.077Z,20.30
2023-03-28T16:03:37.665Z,20.30
2023-03-28T16:06:32.134Z,20.20
2023-03-28T16:09:23.109Z,20.10
2023-03-28T16:12:15.889Z,20.00
2023-03-28T16:15:05.563Z,19.90
2023-03-28T16:17:55.772Z,19.60
2023-03-28T16:20:45.379Z,19.40
2023-03-28T16:23:33.904Z,19.40
2023-03-28T16:26:22.421Z,19.30
2023-03-28T16:29:12.488Z,19.20
2023-03-28T16:32:01.018Z,19.10
2023-03-28T16:34:50.701Z,19.00
2023-03-28T16:37:39.415Z,18.90
2023-03-28T16:40:28.253Z,18.80
2023-03-28T16:43:16.933Z,18.70
2023-03-28T16:46:07.154Z,18.60
2023-03-28T16:48:55.980Z,18.60
2023-03-28T16:51:44.461Z,18.50
2023-03-28T16:54:33.054Z,18.50
2023-03-28T16:57:22.057Z,18.30
2023-03-28T17:00:14.096Z,18.30
2023-03-28T17:03:05.255Z,18.10
2023-03-28T17:05:54.870Z,18.10
2023-03-28T17:08:43.372Z,18.00
2023-03-28T17:11:32.905Z,17.90
2023-03-28T17:14:22.077Z,17.90
2023-03-28T17:17:10.723Z,17.90
2023-03-28T17:20:01.395Z,17.80
2023-03-28T17:22:50.543Z,17.80
2023-03-28T17:25:44.922Z,17.70
2023-03-28T17:28:43.379Z,18.70
2023-03-28T17:31:32.456Z,17.60
2023-03-28T17:34:21.454Z,17.60
2023-03-28T17:37:11.543Z,17.50
2023-03-28T17:40:00.244Z,17.50
2023-03-28T17:42:48.688Z,17.40
2023-03-28T17:45:37.318Z,17.30
2023-03-28T17:48:25.947Z,17.30
2023-03-28T17:51:15.357Z,17.30
2023-03-28T17:54:08.273Z,17.30
2023-03-28T17:56:56.718Z,17.10
2023-03-28T17:59:45.152Z,17.10
2023-03-28T18:02:33.712Z,17.00
2023-03-28T18:05:22.398Z,16.90
2023-03-28T18:08:11.139Z,16.90
2023-03-28T18:11:05.455Z,16.80
2023-03-28T18:13:57.108Z,16.70
2023-03-28T18:16:46.127Z,16.70
2023-03-28T18:19:35.654Z,16.70
2023-03-28T18:22:24.135Z,16.60
2023-03-28T18:25:12.553Z,16.50
2023-03-28T18:28:03.226Z,16.40
2023-03-28T18:30:51.813Z,16.40
2023-03-28T18:33:40.534Z,16.30
2023-03-28T18:36:29.071Z,16.30
2023-03-28T18:39:17.809Z,16.50
2023-03-28T18:42:07.523Z,16.30
2023-03-28T18:44:57.919Z,16.10
2023-03-28T18:47:46.611Z,15.90
2023-03-28T18:50:35.063Z,15.80
2023-03-28T18:53:25.155Z,15.90
2023-03-28T18:56:14.377Z,15.60
2023-03-28T18:59:04.069Z,15.50
2023-03-28T19:01:54.103Z,15.50
2023-03-28T19:04:42.711Z,15.30
2023-03-28T19:07:31.185Z,15.10
2023-03-28T19:10:19.775Z,15.20
2023-03-28T19:13:08.264Z,15.00
2023-03-28T19:16:00.585Z,15.00
2023-03-28T19:18:50.601Z,14.50
2023-03-28T19:21:39.012Z,14.60
2023-03-28T19:24:27.406Z,14.80
2023-03-28T19:27:15.932Z,14.90
2023-03-28T19:30:05.672Z,15.10
2023-03-28T19:32:54.215Z,15.10
2023-03-28T19:35:44.075Z,15.00
2023-03-28T19:38:34.913Z,14.90
2023-03-28T19:41:24.972Z,14.40
2023-03-28T19:44:13.498Z,13.90
2023-03-28T19:47:02.141Z,13.70
2023-03-28T19:49:50.685Z,13.70
2023-03-28T19:52:42.520Z,13.90
2023-03-28T19:55:31.010Z,13.90
2023-03-28T19:58:19.467Z,13.80
2023-03-28T20:01:08.163Z,14.00
2023-03-28T20:03:56.700Z,14.40
2023-03-28T20:06:45.295Z,14.60
2023-03-28T20:09:35.758Z,14.80
2023-03-28T20:12:24.229Z,14.90
2023-03-28T20:15:13.003Z,14.90
2023-03-28T20:18:01.885Z,14.50
2023-03-28T20:20:51.934Z,14.20
2023-03-28T20:23:40.688Z,14.10
2023-03-28T20:26:31.737Z,14.40
2023-03-28T20:29:23.047Z,14.30
2023-03-28T20:32:11.540Z,13.90
2023-03-28T20:35:00.185Z,13.80
2023-03-28T20:37:48.706Z,13.40
2023-03-28T20:40:41.096Z,13.30
2023-03-28T20:43:36.797Z,13.40
2023-03-28T20:46:25.303Z,13.30
2023-03-28T20:49:14.203Z,13.10
2023-03-28T20:52:02.703Z,12.70
2023-03-28T20:54:51.842Z,12.80
2023-03-28T20:57:42.404Z,12.30
2023-03-28T21:00:33.736Z,12.30
2023-03-28T21:03:22.325Z,12.40
2023-03-28T21:06:12.860Z,12.50
2023-03-28T21:09:02.818Z,12.30
2023-03-28T21:11:51.274Z,12.40
2023-03-28T21:14:39.697Z,12.30
2023-03-28T21:17:29.620Z,12.20
2023-03-28T21:20:19.104Z,12.20
2023-03-28T21:23:07.619Z,11.80
2023-03-28T21:25:56.410Z,11.80
2023-03-28T21:28:45.424Z,12.00
2023-03-28T21:31:34.057Z,12.10
2023-03-28T21:34:30.512Z,12.20
2023-03-28T21:37:18.927Z,11.80
2023-03-28T21:40:08.767Z,11.40
2023-03-28T21:42:57.267Z,11.50
2023-03-28T21:45:46.381Z,11.60
2023-03-28T21:48:35.147Z,11.90
2023-03-28T21:51:25.832Z,11.90
2023-03-28T21:54:14.261Z,12.00
2023-03-28T21:57:02.722Z,12.20
2023-03-28T21:59:51.243Z,12.40
2023-03-28T22:02:39.722Z,12.30
2023-03-28T22:05:29.957Z,11.80
2023-03-28T22:08:20.328Z,11.80
2023-03-28T22:11:14.659Z,11.80
2023-03-28T22:14:04.756Z,11.90
2023-03-28T22:16:53.597Z,11.70
2023-03-28T22:19:42.073Z,11.50
2023-03-28T22:22:30.519Z,11.70
2023-03-28T22:25:22.552Z,11.90
2023-03-28T22:28:12.575Z,12.00
2023-03-28T22:31:01.174Z,12.00
2023-03-28T22:33:49.848Z,11.90
2023-03-28T22:36:38.320Z,11.60
2023-03-28T22:39:27.120Z,11.20
2023-03-28T22:42:17.564Z,11.30
2023-03-28T22:45:06.852Z,11.60
2023-03-28T22:47:58.501Z,11.90
2023-03-28T22:50:47.723Z,11.70
2023-03-28T22:53:37.239Z,11.50
2023-03-28T22:56:25.696Z,11.10
2023-03-28T22:59:15.567Z,11.00
2023-03-28T23:02:04.174Z,10.90
2023-03-28T23:04:54.272Z,11.20
2023-03-28T23:07:42.899Z,11.70
2023-03-28T23:10:32.008Z,11.90
2023-03-28T23:13:20.509Z,12.00
2023-03-28T23:16:12.019Z,12.00
2023-03-28T23:19:00.785Z,11.80
2023-03-28T23:21:50.265Z,11.50
2023-03-28T23:24:38.924Z,11.00
2023-03-28T23:27:27.341Z,10.90
2023-03-28T23:30:17.201Z,11.20
2023-03-28T23:33:07.449Z,11.40
2023-03-28T23:35:56.271Z,10.80
2023-03-28T23:38:44.759Z,11.10
2023-03-28T23:41:33.187Z,11.40
2023-03-28T23:44:21.619Z,11.60
2023-03-28T23:47:12.460Z,11.90
2023-03-28T23:50:02.329Z,12.10
2023-03-28T23:52:50.789Z,12.20
2023-03-28T23:55:40.339Z,12.30
2023-03-28T23:58:28.850Z,12.50
